Time;durP1;ratioP1;P1;durP2;ratioP2;P2;SDS_P1;SDS_P2;PMS_P1;PMS_P2;Temp;Humidity;BMP_temperature;BMP_pressure;BME280_temperature;BME280_humidity;BME280_pressure;Samples;Min_cycle;Max_cycle;Signal;HPM_P1;HPM_P2
2022/03/15 00:01:20;;;;;;;12.70;3.65;;;10.20;92.30;;;;;;4947107;28;20027;-66
2022/03/15 00:03:46;;;;;;;15.80;3.70;;;10.20;92.30;;;;;;4949051;28;20032;-65
2022/03/15 00:06:12;;;;;;;11.10;3.85;;;10.10;92.30;;;;;;4943121;28;20035;-65
2022/03/15 00:08:38;;;;;;;11.90;3.33;;;10.10;92.20;;;;;;4949982;28;20101;-65
2022/03/15 00:11:05;;;;;;;18.73;4.88;;;10.10;92.20;;;;;;4952350;28;20089;-66
2022/03/15 00:13:38;;;;;;;13.52;3.70;;;10.10;92.20;;;;;;4951924;28;20038;-65
2022/03/15 00:16:04;;;;;;;11.40;3.70;;;10.10;92.10;;;;;;4950848;28;20078;-65
2022/03/15 00:18:30;;;;;;;9.95;3.53;;;10.10;92.00;;;;;;4931839;28;20119;-65
2022/03/15 00:21:01;;;;;;;15.10;4.07;;;10.10;92.00;;;;;;4944698;28;20126;-66
2022/03/15 00:23:27;;;;;;;13.48;4.35;;;10.10;91.90;;;;;;4943035;28;20035;-66
2022/03/15 00:25:53;;;;;;;17.77;4.25;;;10.10;91.80;;;;;;4933786;28;20035;-65
2022/03/15 00:28:21;;;;;;;16.08;3.92;;;10.10;91.70;;;;;;4951650;28;20114;-65
2022/03/15 00:30:46;;;;;;;16.40;3.90;;;10.10;91.70;;;;;;4948153;28;20104;-66
2022/03/15 00:33:13;;;;;;;17.85;4.78;;;10.00;91.60;;;;;;4983300;28;20039;-65
2022/03/15 00:35:40;;;;;;;16.90;4.65;;;10.00;91.50;;;;;;4951182;28;20031;-66
2022/03/15 00:38:06;;;;;;;16.02;4.20;;;10.00;91.50;;;;;;4950373;28;20035;-66
2022/03/15 00:40:31;;;;;;;21.42;5.80;;;10.10;91.50;;;;;;4940604;28;20387;-65
2022/03/15 00:42:58;;;;;;;12.93;4.88;;;10.00;91.40;;;;;;4931828;28;20086;-66
2022/03/15 00:45:30;;;;;;;21.75;4.75;;;10.10;91.50;;;;;;4980296;28;20036;-65
2022/03/15 00:47:58;;;;;;;13.88;5.35;;;9.90;91.40;;;;;;4948089;28;20043;-65
2022/03/15 00:50:24;;;;;;;11.57;4.25;;;10.00;91.40;;;;;;4939136;28;20451;-65
2022/03/15 00:52:50;;;;;;;18.58;4.55;;;9.90;91.40;;;;;;4950191;28;20494;-65
2022/03/15 00:55:16;;;;;;;14.43;4.95;;;9.90;91.40;;;;;;4950698;28;20040;-65
2022/03/15 00:57:43;;;;;;;10.63;4.03;;;9.90;91.40;;;;;;4948910;28;20058;-65
2022/03/15 01:00:11;;;;;;;19.60;4.32;;;9.90;91.40;;;;;;4948394;28;20410;-66
2022/03/15 01:02:37;;;;;;;18.58;4.47;;;9.90;91.40;;;;;;4991856;28;20044;-65
2022/03/15 01:05:06;;;;;;;16.48;4.75;;;9.90;91.40;;;;;;4967799;28;20035;-66
2022/03/15 01:07:32;;;;;;;12.57;3.95;;;9.80;91.30;;;;;;5001394;28;20032;-66
2022/03/15 01:09:57;;;;;;;9.52;4.43;;;9.80;91.30;;;;;;4964342;28;20368;-66
2022/03/15 01:12:23;;;;;;;13.60;4.65;;;9.80;91.30;;;;;;4958004;28;20402;-65
2022/03/15 01:14:49;;;;;;;10.98;4.57;;;9.80;91.30;;;;;;4949055;28;20032;-66
2022/03/15 01:17:14;;;;;;;10.18;4.47;;;9.80;91.30;;;;;;4949117;28;20035;-66
2022/03/15 01:19:42;;;;;;;7.80;3.20;;;9.70;91.30;;;;;;5006683;28;20414;-65
2022/03/15 01:22:08;;;;;;;18.30;4.10;;;9.70;91.30;;;;;;4950321;28;20024;-66
2022/03/15 01:24:34;;;;;;;12.05;3.75;;;9.70;91.40;;;;;;4949459;28;20065;-66
2022/03/15 01:26:59;;;;;;;8.15;3.28;;;9.60;91.40;;;;;;4949104;28;20042;-65
2022/03/15 01:29:26;;;;;;;14.25;3.95;;;9.60;91.40;;;;;;4947798;28;20054;-66
2022/03/15 01:31:55;;;;;;;16.27;4.15;;;9.50;91.50;;;;;;4947779;28;20062;-66
2022/03/15 01:34:22;;;;;;;11.65;3.60;;;9.50;91.60;;;;;;4940826;28;20027;-66
2022/03/15 01:36:48;;;;;;;15.18;4.22;;;9.50;91.70;;;;;;5007218;28;20039;-65
2022/03/15 01:39:14;;;;;;;17.40;4.72;;;9.50;91.70;;;;;;4938827;28;20090;-65
2022/03/15 01:41:44;;;;;;;17.52;5.15;;;9.40;91.70;;;;;;4948410;28;20039;-66
2022/03/15 01:44:13;;;;;;;15.82;4.57;;;9.40;91.60;;;;;;4949841;28;20039;-65
2022/03/15 01:46:39;;;;;;;14.15;4.10;;;9.50;91.60;;;;;;4939999;28;20043;-65
2022/03/15 01:49:04;;;;;;;14.00;4.82;;;9.50;91.60;;;;;;4948752;28;20024;-66
2022/03/15 01:51:30;;;;;;;21.58;4.90;;;9.50;91.60;;;;;;4948785;28;20395;-65
2022/03/15 01:53:56;;;;;;;14.70;4.72;;;9.50;91.50;;;;;;4947825;28;20070;-65
2022/03/15 01:56:23;;;;;;;10.48;4.20;;;9.50;91.50;;;;;;4948746;28;20085;-65
2022/03/15 01:58:51;;;;;;;8.93;4.30;;;9.50;91.40;;;;;;4948198;28;20771;-66
2022/03/15 02:01:17;;;;;;;9.43;4.70;;;9.50;91.40;;;;;;4951429;28;20026;-65
2022/03/15 02:03:43;;;;;;;15.48;4.07;;;9.50;91.40;;;;;;4953200;28;20139;-65
2022/03/15 02:06:09;;;;;;;17.73;4.38;;;9.40;91.30;;;;;;4949988;28;20122;-65
2022/03/15 02:08:36;;;;;;;11.57;4.45;;;9.40;91.30;;;;;;4946926;28;20038;-66
2022/03/15 02:11:02;;;;;;;12.73;4.93;;;9.40;91.30;;;;;;5004882;28;20046;-65
2022/03/15 02:13:29;;;;;;;16.60;5.25;;;9.40;91.30;;;;;;4950003;28;20089;-66
2022/03/15 02:15:55;;;;;;;7.53;3.60;;;9.40;91.30;;;;;;4951670;28;20043;-65
2022/03/15 02:18:23;;;;;;;10.60;4.25;;;9.30;91.30;;;;;;4953149;28;20039;-65
2022/03/15 02:20:49;;;;;;;15.25;4.78;;;9.30;91.30;;;;;;4940723;28;20039;-65
2022/03/15 02:23:16;;;;;;;14.32;4.82;;;9.30;91.40;;;;;;4939794;28;20089;-66
2022/03/15 02:25:42;;;;;;;8.52;5.03;;;9.20;91.40;;;;;;4952931;28;20092;-65
2022/03/15 02:28:08;;;;;;;17.67;4.63;;;9.20;91.40;;;;;;4951927;28;20514;-65
2022/03/15 02:30:34;;;;;;;11.20;4.68;;;9.20;91.40;;;;;;4941352;28;20062;-66
2022/03/15 02:33:01;;;;;;;13.45;5.03;;;9.20;91.30;;;;;;4952666;28;20035;-65
2022/03/15 02:35:26;;;;;;;13.95;4.57;;;9.20;91.30;;;;;;4951550;28;20459;-65
2022/03/15 02:37:52;;;;;;;13.30;4.93;;;9.20;91.30;;;;;;4944838;28;20038;-65
2022/03/15 02:40:18;;;;;;;16.30;4.68;;;9.20;91.30;;;;;;4949842;28;20031;-65
2022/03/15 02:42:43;;;;;;;18.40;4.95;;;9.20;91.30;;;;;;4950074;28;20096;-65
2022/03/15 02:45:10;;;;;;;14.68;5.28;;;9.20;91.20;;;;;;4935654;28;20032;-65
2022/03/15 02:47:37;;;;;;;15.30;5.28;;;9.20;91.20;;;;;;4948926;28;20493;-65
2022/03/15 02:50:03;;;;;;;13.68;4.70;;;9.30;91.20;;;;;;4951920;28;20040;-65
2022/03/15 02:52:30;;;;;;;12.05;4.72;;;9.30;91.20;;;;;;4952489;28;20039;-65
2022/03/15 02:54:58;;;;;;;18.45;5.72;;;9.30;91.20;;;;;;4952231;28;20035;-66
2022/03/15 02:57:24;;;;;;;18.50;5.35;;;9.20;91.20;;;;;;4952038;28;20054;-65
2022/03/15 02:59:55;;;;;;;15.00;5.20;;;9.20;91.20;;;;;;4952219;28;20079;-65
2022/03/15 03:02:21;;;;;;;11.93;4.53;;;9.20;91.20;;;;;;4952856;28;20035;-65
2022/03/15 03:04:46;;;;;;;14.43;4.95;;;9.20;91.20;;;;;;4951691;28;20096;-65
2022/03/15 03:07:17;;;;;;;13.93;5.78;;;9.20;91.20;;;;;;4952333;28;20271;-65
2022/03/15 03:09:43;;;;;;;13.95;4.93;;;9.20;91.20;;;;;;4982534;28;20454;-65
2022/03/15 03:12:09;;;;;;;9.52;4.47;;;9.20;91.20;;;;;;4967294;28;20035;-65
2022/03/15 03:14:39;;;;;;;14.68;6.32;;;9.20;91.20;;;;;;4940616;28;20403;-65
2022/03/15 03:17:05;;;;;;;9.90;4.97;;;9.20;91.30;;;;;;4952409;28;20050;-65
2022/03/15 03:19:31;;;;;;;14.05;5.50;;;9.20;91.30;;;;;;4943016;28;20487;-65
2022/03/15 03:21:56;;;;;;;9.63;5.65;;;9.20;91.30;;;;;;4945461;28;20516;-65
2022/03/15 03:24:26;;;;;;;16.55;5.25;;;9.20;91.30;;;;;;4933367;28;20118;-65
2022/03/15 03:26:52;;;;;;;11.63;5.90;;;9.20;91.40;;;;;;4947775;28;20474;-65
2022/03/15 03:29:18;;;;;;;18.08;5.15;;;9.20;91.40;;;;;;4951561;28;20042;-65
2022/03/15 03:31:44;;;;;;;9.25;5.32;;;9.20;91.40;;;;;;4951948;28;20122;-65
2022/03/15 03:34:11;;;;;;;23.20;6.57;;;9.20;91.40;;;;;;4941501;28;20123;-65
2022/03/15 03:36:38;;;;;;;13.75;4.70;;;9.20;91.50;;;;;;4949709;28;20039;-66
2022/03/15 03:39:06;;;;;;;12.50;6.32;;;9.20;91.50;;;;;;4952056;28;20043;-66
2022/03/15 03:41:31;;;;;;;16.38;5.53;;;9.20;91.50;;;;;;4951131;28;20036;-65
2022/03/15 03:43:57;;;;;;;20.55;6.35;;;9.20;91.60;;;;;;4941609;28;20043;-65
2022/03/15 03:46:23;;;;;;;15.90;6.30;;;9.20;91.60;;;;;;4933246;28;20035;-65
2022/03/15 03:48:50;;;;;;;14.95;5.57;;;9.20;91.70;;;;;;4943797;28;20442;-65
2022/03/15 03:51:18;;;;;;;15.20;6.13;;;9.20;91.70;;;;;;4951790;28;20096;-65
2022/03/15 03:53:44;;;;;;;23.30;6.68;;;9.20;91.70;;;;;;4941612;28;20043;-65
2022/03/15 03:56:10;;;;;;;20.63;6.00;;;9.20;91.80;;;;;;4951233;28;20367;-65
2022/03/15 03:58:36;;;;;;;15.07;6.45;;;9.20;91.80;;;;;;4951785;28;20058;-65
2022/03/15 04:01:02;;;;;;;28.95;9.20;;;9.30;91.90;;;;;;4938118;28;20042;-65
2022/03/15 04:03:29;;;;;;;14.30;6.60;;;9.20;92.10;;;;;;4951322;28;20031;-65
2022/03/15 04:05:56;;;;;;;14.60;6.13;;;9.30;91.90;;;;;;4951812;28;20047;-65
2022/03/15 04:08:23;;;;;;;28.33;6.60;;;9.30;92.00;;;;;;4948779;28;20031;-65
2022/03/15 04:10:50;;;;;;;15.73;6.28;;;9.30;92.00;;;;;;4984654;28;20054;-65
2022/03/15 04:13:16;;;;;;;15.40;6.25;;;9.30;92.00;;;;;;4951717;28;20035;-65
2022/03/15 04:15:42;;;;;;;12.90;6.03;;;9.30;92.00;;;;;;4949656;28;20070;-65
2022/03/15 04:18:08;;;;;;;13.82;6.45;;;9.30;92.00;;;;;;4951426;28;20097;-65
2022/03/15 04:20:35;;;;;;;23.05;7.00;;;9.30;92.00;;;;;;4947262;28;20158;-65
2022/03/15 04:23:01;;;;;;;15.00;6.28;;;9.30;92.10;;;;;;4931739;28;20046;-65
2022/03/15 04:25:27;;;;;;;19.17;7.32;;;9.30;92.10;;;;;;4949483;28;20038;-65
2022/03/15 04:27:56;;;;;;;20.73;7.38;;;9.30;92.10;;;;;;4951463;28;20399;-65
2022/03/15 04:30:24;;;;;;;19.15;6.97;;;9.30;92.20;;;;;;4944664;28;20066;-65
2022/03/15 04:32:50;;;;;;;15.90;7.50;;;9.30;92.20;;;;;;4944203;28;20038;-65
2022/03/15 04:35:16;;;;;;;21.75;7.53;;;9.30;92.30;;;;;;4950501;28;20455;-65
2022/03/15 04:37:41;;;;;;;17.63;8.07;;;9.30;92.30;;;;;;4949393;28;20062;-65
2022/03/15 04:40:08;;;;;;;23.02;7.95;;;9.30;92.40;;;;;;4944784;28;20097;-65
2022/03/15 04:42:34;;;;;;;17.10;7.80;;;9.30;92.40;;;;;;4944258;28;20122;-65
2022/03/15 04:45:01;;;;;;;18.92;8.00;;;9.30;92.40;;;;;;4951450;28;20118;-67
2022/03/15 04:47:29;;;;;;;21.80;8.38;;;9.40;92.50;;;;;;4937820;28;20442;-66
2022/03/15 04:49:55;;;;;;;18.77;7.82;;;9.30;92.50;;;;;;4949627;28;20379;-66
2022/03/15 04:52:21;;;;;;;17.70;7.90;;;9.40;92.50;;;;;;4949956;28;20041;-66
2022/03/15 04:54:46;;;;;;;21.98;7.95;;;9.40;92.60;;;;;;4950811;28;20495;-66
2022/03/15 04:57:12;;;;;;;22.00;7.20;;;9.40;92.60;;;;;;4937599;28;20047;-65
2022/03/15 04:59:38;;;;;;;16.10;7.00;;;9.40;92.60;;;;;;4950836;28;20051;-65
2022/03/15 05:02:03;;;;;;;27.67;8.65;;;9.40;92.50;;;;;;4947802;28;20114;-66
2022/03/15 05:04:29;;;;;;;23.75;8.60;;;9.40;92.50;;;;;;4939472;28;20023;-65
2022/03/15 05:06:55;;;;;;;22.05;7.93;;;9.40;92.50;;;;;;4937991;28;20478;-65
2022/03/15 05:09:20;;;;;;;19.27;7.53;;;9.40;92.60;;;;;;4958526;28;20093;-65
2022/03/15 05:11:47;;;;;;;19.00;8.05;;;9.40;92.60;;;;;;4949906;28;20067;-65
2022/03/15 05:14:14;;;;;;;26.60;8.73;;;9.40;92.60;;;;;;4970712;28;20118;-65
2022/03/15 05:16:41;;;;;;;23.35;9.70;;;9.40;92.60;;;;;;4980802;28;20122;-65
2022/03/15 05:19:06;;;;;;;21.30;9.07;;;9.40;92.60;;;;;;4969621;28;20114;-65
2022/03/15 05:21:32;;;;;;;24.05;8.85;;;9.40;92.60;;;;;;4951191;28;20150;-65
2022/03/15 05:23:58;;;;;;;20.70;8.07;;;9.40;92.60;;;;;;4950276;28;20149;-65
2022/03/15 05:26:23;;;;;;;24.88;9.57;;;9.40;92.60;;;;;;4949366;28;20106;-65
2022/03/15 05:28:50;;;;;;;32.90;9.40;;;9.40;92.60;;;;;;4950189;28;20027;-65
2022/03/15 05:31:20;;;;;;;18.52;8.15;;;9.40;92.60;;;;;;4931674;28;20043;-67
2022/03/15 05:33:48;;;;;;;36.33;8.30;;;9.40;92.60;;;;;;4942211;28;20665;-67
2022/03/15 05:36:15;;;;;;;23.33;8.18;;;9.40;92.60;;;;;;4950322;28;20088;-67
2022/03/15 05:38:41;;;;;;;23.27;8.48;;;9.40;92.60;;;;;;4935775;28;20432;-67
2022/03/15 05:41:08;;;;;;;17.55;6.93;;;9.40;92.60;;;;;;4949050;28;20073;-66
2022/03/15 05:43:37;;;;;;;20.45;7.78;;;9.40;92.60;;;;;;4937909;28;20079;-66
2022/03/15 05:46:04;;;;;;;17.17;7.35;;;9.50;92.60;;;;;;4946606;28;20038;-68
2022/03/15 05:48:31;;;;;;;19.80;8.13;;;9.50;92.60;;;;;;4949824;28;20071;-66
2022/03/15 05:50:57;;;;;;;16.77;7.32;;;9.50;92.50;;;;;;4940975;28;20411;-66
2022/03/15 05:53:23;;;;;;;22.55;8.27;;;9.50;92.50;;;;;;4940238;28;20475;-67
2022/03/15 05:55:49;;;;;;;23.95;8.57;;;9.50;92.50;;;;;;4943565;28;20043;-65
2022/03/15 05:58:16;;;;;;;17.30;7.53;;;9.50;92.40;;;;;;4959533;28;20045;-65
2022/03/15 06:00:45;;;;;;;21.98;9.35;;;9.50;92.40;;;;;;4957967;28;20043;-65
2022/03/15 06:03:11;;;;;;;30.10;9.10;;;9.50;92.40;;;;;;4954510;28;20120;-65
2022/03/15 06:05:37;;;;;;;25.13;8.65;;;9.50;92.40;;;;;;4948281;28;20055;-65
2022/03/15 06:08:03;;;;;;;18.90;8.95;;;9.50;92.40;;;;;;4948662;28;20035;-65
2022/03/15 06:10:30;;;;;;;22.23;9.32;;;9.50;92.50;;;;;;5000397;28;20090;-66
2022/03/15 06:12:57;;;;;;;31.10;9.77;;;9.50;92.50;;;;;;4932886;28;21361;-66
2022/03/15 06:15:22;;;;;;;19.80;9.10;;;9.50;92.50;;;;;;4938929;28;20050;-67
2022/03/15 06:17:56;;;;;;;22.02;10.07;;;9.50;92.50;;;;;;4938434;28;20031;-66
2022/03/15 06:20:22;;;;;;;;;;;9.40;92.50;;;;;;4944001;28;20111;-66
2022/03/15 06:22:48;;;;;;;18.63;8.48;;;9.50;92.50;;;;;;4955930;28;19921;-66
2022/03/15 06:25:17;;;;;;;19.15;8.15;;;9.50;92.40;;;;;;4948419;28;20070;-65
2022/03/15 06:27:43;;;;;;;16.95;7.57;;;9.40;92.50;;;;;;4949454;28;20492;-65
2022/03/15 06:30:11;;;;;;;20.45;8.52;;;9.40;92.50;;;;;;4934806;28;20139;-64
2022/03/15 06:32:37;;;;;;;22.90;8.60;;;9.40;92.60;;;;;;4954977;28;20132;-65
2022/03/15 06:35:07;;;;;;;22.55;8.50;;;9.40;92.60;;;;;;4978612;28;20036;-65
2022/03/15 06:37:37;;;;;;;33.55;9.70;;;9.40;92.60;;;;;;4968413;28;20050;-66
2022/03/15 06:40:04;;;;;;;16.55;7.78;;;9.40;92.60;;;;;;4941296;28;20396;-65
2022/03/15 06:42:31;;;;;;;19.20;8.52;;;9.30;92.60;;;;;;4932146;28;20074;-64
2022/03/15 06:44:57;;;;;;;22.27;9.52;;;9.40;92.70;;;;;;4936140;28;20713;-67
2022/03/15 06:47:23;;;;;;;26.58;9.27;;;9.40;92.70;;;;;;4929625;28;20088;-65
2022/03/15 06:49:48;;;;;;;22.30;10.07;;;9.30;92.70;;;;;;4944877;28;20123;-65
2022/03/15 06:52:14;;;;;;;25.10;9.75;;;9.30;92.80;;;;;;4947965;28;20071;-65
2022/03/15 06:54:40;;;;;;;21.45;10.13;;;9.30;92.80;;;;;;5005366;28;20057;-68
2022/03/15 06:57:05;;;;;;;22.55;10.52;;;9.30;92.80;;;;;;4943745;28;20547;-64
2022/03/15 06:59:31;;;;;;;35.17;11.48;;;9.30;92.90;;;;;;4947046;28;20498;-65
2022/03/15 07:01:58;;;;;;;22.52;10.75;;;9.30;93.00;;;;;;4938914;28;20097;-65
2022/03/15 07:04:23;;;;;;;27.90;11.15;;;9.30;93.00;;;;;;4938429;28;20068;-65
2022/03/15 07:06:49;;;;;;;26.20;9.52;;;9.30;93.10;;;;;;4952402;28;20046;-65
2022/03/15 07:09:15;;;;;;;25.60;10.32;;;9.30;93.10;;;;;;4962880;28;20114;-65
2022/03/15 07:11:40;;;;;;;30.42;10.68;;;9.30;93.20;;;;;;4984001;28;20093;-65
2022/03/15 07:14:06;;;;;;;29.83;11.98;;;9.30;93.20;;;;;;4949495;28;20113;-65
2022/03/15 07:16:32;;;;;;;30.00;11.07;;;9.30;93.30;;;;;;4952798;28;20051;-65
2022/03/15 07:18:57;;;;;;;28.63;11.52;;;9.40;93.30;;;;;;4951575;28;20023;-65
2022/03/15 07:21:24;;;;;;;26.50;11.68;;;9.40;93.40;;;;;;4940842;28;20552;-65
2022/03/15 07:23:50;;;;;;;28.67;11.38;;;9.40;93.50;;;;;;4945467;28;20063;-65
2022/03/15 07:26:16;;;;;;;29.98;11.38;;;9.40;93.50;;;;;;4932678;28;20035;-65
2022/03/15 07:28:41;;;;;;;36.63;13.50;;;9.40;93.50;;;;;;4951670;28;20023;-65
2022/03/15 07:31:07;;;;;;;25.67;11.75;;;9.40;93.70;;;;;;4951574;28;20457;-65
2022/03/15 07:33:32;;;;;;;34.00;12.60;;;9.50;93.70;;;;;;4951313;28;20395;-65
2022/03/15 07:36:02;;;;;;;28.92;12.60;;;9.40;93.70;;;;;;4951759;28;20067;-65
2022/03/15 07:38:28;;;;;;;28.50;12.88;;;9.50;93.80;;;;;;4939715;28;20613;-65
2022/03/15 07:40:54;;;;;;;28.75;13.73;;;9.50;93.90;;;;;;4945685;28;20085;-65
2022/03/15 07:43:23;;;;;;;35.45;13.52;;;9.50;93.90;;;;;;4940499;28;20085;-65
2022/03/15 07:45:49;;;;;;;27.33;12.98;;;9.50;93.90;;;;;;4949241;28;20035;-65
2022/03/15 07:48:16;;;;;;;29.25;12.77;;;9.60;93.90;;;;;;4952376;28;20042;-65
2022/03/15 07:50:42;;;;;;;27.08;12.77;;;9.60;93.90;;;;;;4951993;28;20041;-65
2022/03/15 07:53:08;;;;;;;33.97;14.15;;;9.60;93.90;;;;;;4942402;28;20547;-65
2022/03/15 07:55:34;;;;;;;26.83;13.18;;;9.60;93.90;;;;;;4948342;28;20118;-65
2022/03/15 07:58:00;;;;;;;37.08;15.70;;;9.70;94.00;;;;;;4951785;28;20110;-65
2022/03/15 08:00:26;;;;;;;30.70;14.27;;;9.70;94.00;;;;;;4950995;28;20038;-65
2022/03/15 08:02:52;;;;;;;33.42;15.65;;;9.70;94.00;;;;;;4941999;28;20483;-65
2022/03/15 08:05:18;;;;;;;33.70;14.57;;;9.70;94.10;;;;;;4932504;28;20387;-65
2022/03/15 08:07:44;;;;;;;40.17;16.10;;;9.80;94.10;;;;;;4932213;28;20383;-63
2022/03/15 08:10:10;;;;;;;27.98;14.43;;;9.80;94.20;;;;;;4999012;28;20040;-65
2022/03/15 08:12:37;;;;;;;36.28;15.93;;;9.80;94.20;;;;;;4956453;28;20040;-64
2022/03/15 08:15:04;;;;;;;30.30;15.70;;;9.80;94.20;;;;;;4950972;28;20039;-63
2022/03/15 08:17:29;;;;;;;33.63;15.32;;;9.80;94.60;;;;;;4951451;28;20046;-63
2022/03/15 08:19:57;;;;;;;40.78;16.40;;;9.80;94.30;;;;;;4981126;28;20022;-66
2022/03/15 08:22:24;;;;;;;30.33;15.38;;;9.90;94.30;;;;;;4991329;28;20039;-64
2022/03/15 08:24:50;;;;;;;35.08;14.07;;;9.90;94.40;;;;;;4951354;28;20030;-64
2022/03/15 08:27:15;;;;;;;28.92;15.45;;;9.90;94.40;;;;;;4950752;28;20031;-64
2022/03/15 08:29:43;;;;;;;37.58;15.32;;;9.90;94.50;;;;;;4937943;28;20046;-64
2022/03/15 08:32:09;;;;;;;31.00;15.95;;;9.90;94.50;;;;;;4951193;28;20047;-64
2022/03/15 08:34:34;;;;;;;38.28;15.00;;;9.90;94.50;;;;;;4950256;28;20051;-64
2022/03/15 08:37:00;;;;;;;32.47;16.10;;;10.00;94.50;;;;;;4951479;28;20088;-65
2022/03/15 08:39:26;;;;;;;44.05;17.30;;;10.00;94.50;;;;;;4938753;28;20023;-64
2022/03/15 08:41:52;;;;;;;31.02;14.18;;;10.00;94.60;;;;;;4950943;28;20117;-64
2022/03/15 08:44:22;;;;;;;31.30;14.05;;;10.00;94.50;;;;;;4950406;28;20031;-65
2022/03/15 08:46:49;;;;;;;33.13;14.48;;;10.10;94.50;;;;;;4947408;28;20467;-64
2022/03/15 08:49:17;;;;;;;36.63;13.45;;;10.10;94.40;;;;;;4950580;28;20027;-65
2022/03/15 08:51:43;;;;;;;35.75;14.55;;;10.10;94.40;;;;;;4938414;28;20079;-64
2022/03/15 08:54:09;;;;;;;30.50;14.60;;;10.10;94.40;;;;;;4951348;28;20027;-64
2022/03/15 08:56:41;;;;;;;33.72;15.60;;;10.20;94.40;;;;;;4949612;28;20097;-64
2022/03/15 08:59:15;;;;;;;30.05;14.50;;;10.20;94.40;;;;;;4949949;28;20146;-64
2022/03/15 09:01:41;;;;;;;38.13;16.85;;;10.30;94.50;;;;;;4934463;28;20031;-64
2022/03/15 09:04:07;;;;;;;31.85;15.55;;;10.30;94.50;;;;;;4941593;28;20027;-64
2022/03/15 09:06:33;;;;;;;35.45;15.88;;;10.30;94.50;;;;;;4946798;28;20449;-64
2022/03/15 09:09:00;;;;;;;28.02;14.00;;;10.30;94.50;;;;;;4942661;28;20035;-64
2022/03/15 09:11:27;;;;;;;31.40;14.88;;;10.30;94.50;;;;;;4997635;28;20044;-64
2022/03/15 09:13:53;;;;;;;40.80;15.93;;;10.40;94.50;;;;;;4946693;28;20035;-64
2022/03/15 09:16:20;;;;;;;34.10;16.33;;;10.40;94.50;;;;;;4950629;28;20035;-64
2022/03/15 09:18:46;;;;;;;37.45;16.05;;;10.40;94.50;;;;;;4949957;28;20039;-64
2022/03/15 09:21:12;;;;;;;31.35;14.43;;;10.40;94.50;;;;;;4950881;28;20039;-64
2022/03/15 09:23:39;;;;;;;43.20;17.85;;;10.50;94.50;;;;;;4933510;28;20043;-64
2022/03/15 09:26:04;;;;;;;32.97;15.95;;;10.50;94.50;;;;;;4941338;28;20035;-64
2022/03/15 09:28:30;;;;;;;33.92;15.95;;;10.50;94.50;;;;;;4950461;28;20038;-64
2022/03/15 09:30:56;;;;;;;36.55;16.42;;;10.60;94.50;;;;;;4949843;28;20051;-64
2022/03/15 09:33:23;;;;;;;36.17;16.60;;;10.60;94.50;;;;;;4939355;28;20020;-64
2022/03/15 09:35:49;;;;;;;41.70;18.25;;;10.60;94.50;;;;;;4939175;28;20028;-64
2022/03/15 09:38:15;;;;;;;33.97;17.02;;;10.60;94.50;;;;;;4948688;28;20023;-64
2022/03/15 09:40:42;;;;;;;34.58;17.40;;;10.60;94.50;;;;;;4950079;28;20368;-67
2022/03/15 09:43:11;;;;;;;39.63;17.98;;;10.70;94.60;;;;;;4960737;28;20057;-65
2022/03/15 09:45:38;;;;;;;46.15;16.35;;;10.60;94.60;;;;;;4995435;28;20025;-65
2022/03/15 09:48:11;;;;;;;32.47;15.25;;;10.70;94.60;;;;;;5005314;28;20021;-65
2022/03/15 09:50:39;;;;;;;40.40;17.90;;;10.70;94.60;;;;;;4960455;28;20043;-67
2022/03/15 09:53:05;;;;;;;35.42;17.30;;;10.70;94.60;;;;;;4949654;28;20051;-66
2022/03/15 09:55:31;;;;;;;33.67;17.90;;;10.80;94.70;;;;;;4937313;28;20086;-66
2022/03/15 09:57:56;;;;;;;30.25;16.05;;;10.80;94.70;;;;;;4941767;28;20051;-68
2022/03/15 10:00:26;;;;;;;34.95;15.75;;;10.80;94.60;;;;;;4946881;28;20064;-64
2022/03/15 10:02:52;;;;;;;34.35;16.75;;;10.80;94.60;;;;;;4998475;28;20030;-67
2022/03/15 10:05:19;;;;;;;39.78;17.55;;;10.80;94.60;;;;;;4948633;28;20043;-65
2022/03/15 10:07:46;;;;;;;34.80;15.65;;;10.90;94.50;;;;;;4930535;28;20036;-66
2022/03/15 10:10:15;;;;;;;37.83;16.50;;;10.90;94.50;;;;;;4969469;28;20054;-66
2022/03/15 10:12:40;;;;;;;37.28;17.10;;;11.00;94.50;;;;;;4950897;28;20540;-66
2022/03/15 10:15:11;;;;;;;35.75;16.80;;;11.00;94.40;;;;;;4938639;28;20027;-66
2022/03/15 10:18:04;;;;;;;33.00;15.93;;;11.00;94.30;;;;;;4965865;28;20407;-66
2022/03/15 10:20:38;;;;;;;27.48;16.58;;;11.00;94.20;;;;;;4939415;28;20067;-66
2022/03/15 10:23:03;;;;;;;30.83;13.73;;;11.10;94.20;;;;;;4935134;28;20115;-66
2022/03/15 10:25:31;;;;;;;30.50;13.35;;;11.10;94.30;;;;;;4946790;28;20107;-66
2022/03/15 10:27:59;;;;;;;32.00;16.20;;;11.20;94.20;;;;;;4945735;28;20043;-66
2022/03/15 10:30:27;;;;;;;28.38;13.93;;;11.20;94.20;;;;;;4985216;28;20062;-66
2022/03/15 10:32:53;;;;;;;32.03;14.52;;;11.20;94.10;;;;;;4943064;28;20035;-66
2022/03/15 10:35:27;;;;;;;29.00;15.45;;;11.30;94.10;;;;;;4944052;28;20439;-66
2022/03/15 10:37:55;;;;;;;28.70;14.55;;;11.30;94.10;;;;;;4943804;28;20113;-66
2022/03/15 10:40:53;;;;;;;37.67;17.30;;;11.40;94.00;;;;;;4963579;28;20600;-66
2022/03/15 10:43:24;;;;;;;28.63;14.25;;;11.40;94.10;;;;;;4975097;28;20064;-67
2022/03/15 10:45:57;;;;;;;28.20;12.65;;;11.50;93.90;;;;;;4940928;28;20062;-69
2022/03/15 10:48:30;;;;;;;31.10;14.27;;;11.50;93.90;;;;;;4952365;28;20040;-68
2022/03/15 10:51:02;;;;;;;28.10;12.20;;;11.50;93.90;;;;;;4942693;28;20055;-68
2022/03/15 10:53:41;;;;;;;40.10;16.98;;;11.50;93.60;;;;;;4938672;28;20031;-66
2022/03/15 10:56:14;;;;;;;29.80;15.38;;;11.60;93.80;;;;;;4951856;28;20680;-67
2022/03/15 10:58:48;;;;;;;35.05;15.38;;;11.60;93.80;;;;;;4963838;28;20041;-67
2022/03/15 11:01:16;;;;;;;33.25;15.93;;;11.60;93.70;;;;;;5007090;28;20124;-66
2022/03/15 11:04:03;;;;;;;32.30;15.38;;;11.70;93.90;;;;;;5024994;28;20136;-67
2022/03/15 11:06:40;;;;;;;29.30;15.15;;;11.70;93.80;;;;;;5027695;28;20052;-66
2022/03/15 11:09:31;;;;;;;32.42;15.43;;;11.70;93.80;;;;;;5019202;28;20523;-67
2022/03/15 11:12:08;;;;;;;33.47;15.20;;;11.80;93.80;;;;;;5007568;28;20041;-67
2022/03/15 11:14:44;;;;;;;29.23;14.70;;;11.80;93.80;;;;;;4993835;28;20031;-67
2022/03/15 11:17:18;;;;;;;37.22;14.75;;;11.80;93.70;;;;;;5010368;28;20489;-68
2022/03/15 11:19:47;;;;;;;32.53;15.15;;;11.80;93.70;;;;;;4944296;28;20035;-68
2022/03/15 11:22:14;;;;;;;27.63;15.45;;;11.80;93.70;;;;;;4952534;28;20086;-67
2022/03/15 11:24:58;;;;;;;30.75;15.52;;;11.90;93.70;;;;;;4939613;28;20030;-68
2022/03/15 11:27:29;;;;;;;32.00;15.18;;;11.90;93.70;;;;;;4941145;28;20039;-68
2022/03/15 11:29:57;;;;;;;30.95;14.65;;;12.00;93.70;;;;;;4949599;28;20089;-65
2022/03/15 11:32:23;;;;;;;30.75;15.88;;;11.90;93.70;;;;;;4941898;28;20475;-65
2022/03/15 11:34:49;;;;;;;28.50;13.70;;;12.00;93.70;;;;;;4952134;28;20027;-65
2022/03/15 11:37:16;;;;;;;30.83;13.27;;;12.00;93.70;;;;;;4947370;28;20031;-65
2022/03/15 11:39:42;;;;;;;32.55;13.25;;;12.10;93.60;;;;;;4951197;28;20046;-65
2022/03/15 11:42:12;;;;;;;27.42;13.57;;;12.10;93.60;;;;;;4952517;28;20059;-65
2022/03/15 11:44:49;;;;;;;37.65;13.43;;;12.10;93.50;;;;;;4946497;28;20036;-65
2022/03/15 11:47:58;;;;;;;33.33;14.35;;;12.20;93.50;;;;;;4945618;28;20616;-64
2022/03/15 11:50:32;;;;;;;35.38;13.90;;;12.20;93.50;;;;;;4951774;28;20552;-65
2022/03/15 11:53:08;;;;;;;30.58;12.68;;;12.20;93.40;;;;;;5001982;28;20044;-64
2022/03/15 11:55:56;;;;;;;26.83;13.32;;;12.30;93.70;;;;;;5005291;28;20042;-67
2022/03/15 11:58:27;;;;;;;21.42;12.38;;;12.30;93.40;;;;;;4951501;28;20063;-65
2022/03/15 12:00:53;;;;;;;31.83;13.60;;;12.30;93.30;;;;;;4981973;28;20401;-65
2022/03/15 12:03:22;;;;;;;26.60;12.30;;;12.40;93.40;;;;;;5019472;28;20065;-65
2022/03/15 12:05:57;;;;;;;18.13;8.93;;;12.40;93.30;;;;;;5016672;28;20068;-65
2022/03/15 12:08:26;;;;;;;28.30;13.05;;;12.40;93.20;;;;;;4984539;28;20025;-64
2022/03/15 12:10:58;;;;;;;30.13;13.73;;;12.40;93.20;;;;;;5023205;28;20102;-64
2022/03/15 12:13:43;;;;;;;28.83;12.70;;;12.50;93.20;;;;;;4980484;28;20070;-65
2022/03/15 12:16:15;;;;;;;20.58;10.43;;;12.50;93.10;;;;;;4951916;28;20719;-65
2022/03/15 12:18:53;;;;;;;30.30;12.13;;;12.60;93.00;;;;;;4938767;28;20036;-65
2022/03/15 12:21:25;;;;;;;19.67;10.35;;;12.50;93.00;;;;;;5022941;28;20026;-65
2022/03/15 12:23:54;;;;;;;24.08;12.63;;;12.50;93.10;;;;;;4981107;28;20130;-64
2022/03/15 12:26:28;;;;;;;16.75;6.65;;;12.50;93.20;;;;;;5029995;28;20025;-64
2022/03/15 12:29:14;;;;;;;19.15;8.70;;;12.50;93.20;;;;;;5018965;28;20037;-64
2022/03/15 12:31:46;;;;;;;14.48;4.75;;;12.50;93.30;;;;;;5029737;28;20042;-64
2022/03/15 12:34:14;;;;;;;10.15;5.20;;;12.50;93.50;;;;;;5018215;28;20064;-64
2022/03/15 12:36:54;;;;;;;5.13;2.97;;;12.50;93.60;;;;;;5028729;28;20465;-64
2022/03/15 12:39:28;;;;;;;19.05;8.95;;;12.40;93.70;;;;;;5004248;28;20386;-64
2022/03/15 12:42:05;;;;;;;18.08;6.78;;;12.40;93.80;;;;;;5001312;28;20432;-64